Time;durP1;ratioP1;P1;durP2;ratioP2;P2;SDS_P1;SDS_P2;PMS_P1;PMS_P2;Temp;Humidity;BMP_temperature;BMP_pressure;BME280_temperature;BME280_humidity;BME280_pressure;Samples;Min_cycle;Max_cycle;Signal;HPM_P1;HPM_P2
2022/06/05 00:01:57;;;;;;;2.78;2.58;;;;;;;;;;5045818;28;20234;-79
2022/06/05 00:04:30;;;;;;;3.08;2.83;;;;;;;;;;5048586;28;20687;-79
2022/06/05 00:07:02;;;;;;;4.75;3.03;;;;;;;;;;5036197;28;20667;-79
2022/06/05 00:09:34;;;;;;;3.22;3.03;;;;;;;;;;5046238;28;20212;-81
2022/06/05 00:12:05;;;;;;;3.15;2.95;;;;;;;;;;5052538;28;20202;-79
2022/06/05 00:14:33;;;;;;;3.35;3.05;;;;;;;;;;5038431;28;20219;-79
2022/06/05 00:17:00;;;;;;;2.40;2.20;;;;;;;;;;5047683;28;20195;-79
2022/06/05 00:19:27;;;;;;;3.42;3.13;;;;;;;;;;5050698;28;20206;-79
2022/06/05 00:21:54;;;;;;;3.05;2.85;;;;;;;;;;5041970;28;20226;-79
2022/06/05 00:24:21;;;;;;;3.78;3.47;;;;;;;;;;5066119;28;20198;-79
2022/06/05 00:26:54;;;;;;;3.50;2.60;;;;;;;;;;5045921;28;20203;-79
2022/06/05 00:29:31;;;;;;;2.90;2.70;;;;;;;;;;5046868;28;20198;-79
2022/06/05 00:32:04;;;;;;;2.50;2.30;;;;;;;;;;5051332;28;20203;-79
2022/06/05 00:34:31;;;;;;;3.58;2.70;;;;;;;;;;5045138;28;20701;-80
2022/06/05 00:37:04;;;;;;;3.35;3.05;;;;;;;;;;5051396;28;20658;-79
2022/06/05 00:39:44;;;;;;;4.88;3.20;;;;;;;;;;5052448;28;20210;-79
2022/06/05 00:42:12;;;;;;;3.10;2.90;;;;;;;;;;5041485;28;20982;-79
2022/06/05 00:44:42;;;;;;;2.80;2.58;;;;;;;;;;5045363;28;20563;-79
2022/06/05 00:47:11;;;;;;;3.35;2.90;;;;;;;;;;5048230;28;20202;-79
2022/06/05 00:49:40;;;;;;;3.65;3.35;;;;;;;;;;5043101;28;20663;-80
2022/06/05 00:52:09;;;;;;;3.38;3.17;;;;;;;;;;5056433;28;20204;-78
2022/06/05 00:54:36;;;;;;;4.65;4.25;;;;;;;;;;5046441;28;20232;-78
2022/06/05 00:57:06;;;;;;;5.00;2.72;;;;;;;;;;5046832;28;20202;-79
2022/06/05 00:59:33;;;;;;;3.88;2.85;;;;;;;;;;5045107;28;20230;-78
2022/06/05 01:02:02;;;;;;;3.53;3.28;;;;;;;;;;5037337;28;20720;-77
2022/06/05 01:04:32;;;;;;;3.47;2.75;;;;;;;;;;5046889;28;20236;-78
2022/06/05 01:06:59;;;;;;;3.22;2.92;;;;;;;;;;5057680;28;20202;-78
2022/06/05 01:09:26;;;;;;;3.10;2.90;;;;;;;;;;5048801;28;20707;-77
2022/06/05 01:12:00;;;;;;;3.85;3.58;;;;;;;;;;5040882;28;20250;-78
2022/06/05 01:14:33;;;;;;;3.80;2.83;;;;;;;;;;5038069;28;20635;-78
2022/06/05 01:17:04;;;;;;;3.58;3.35;;;;;;;;;;5049890;28;20213;-78
2022/06/05 01:19:37;;;;;;;2.80;2.60;;;;;;;;;;5040244;28;20207;-79
2022/06/05 01:22:22;;;;;;;2.92;2.72;;;;;;;;;;5041339;28;20291;-78
2022/06/05 01:25:00;;;;;;;3.60;3.30;;;;;;;;;;5049622;28;20202;-78
2022/06/05 01:27:31;;;;;;;2.90;2.70;;;;;;;;;;5054396;28;20260;-79
2022/06/05 01:30:01;;;;;;;3.05;2.85;;;;;;;;;;5033893;28;20195;-78
2022/06/05 01:32:30;;;;;;;3.25;2.97;;;;;;;;;;5050195;28;20674;-79
2022/06/05 01:35:01;;;;;;;3.42;3.08;;;;;;;;;;5045238;28;20207;-78
2022/06/05 01:37:32;;;;;;;3.33;3.05;;;;;;;;;;5050947;28;20213;-80
2022/06/05 01:40:02;;;;;;;3.92;3.58;;;;;;;;;;5047717;28;20217;-79
2022/06/05 01:42:32;;;;;;;4.72;3.88;;;;;;;;;;5050590;28;20234;-77
2022/06/05 01:45:03;;;;;;;3.95;3.65;;;;;;;;;;5043740;28;20195;-78
2022/06/05 01:47:33;;;;;;;3.47;3.05;;;;;;;;;;5045535;28;20646;-78
2022/06/05 01:50:03;;;;;;;3.33;3.00;;;;;;;;;;5043862;28;20196;-79
2022/06/05 01:52:32;;;;;;;3.10;2.90;;;;;;;;;;5038952;28;20198;-80
2022/06/05 01:55:01;;;;;;;4.30;3.63;;;;;;;;;;5046983;28;20614;-78
2022/06/05 01:57:29;;;;;;;4.70;4.32;;;;;;;;;;5044248;28;20670;-78
2022/06/05 01:59:59;;;;;;;5.28;4.80;;;;;;;;;;5041967;28;20204;-78
2022/06/05 02:02:28;;;;;;;4.38;3.97;;;;;;;;;;5048602;28;20701;-78
2022/06/05 02:04:58;;;;;;;4.25;3.85;;;;;;;;;;5045657;28;20199;-79
2022/06/05 02:07:26;;;;;;;4.28;3.88;;;;;;;;;;5049534;28;20207;-78
2022/06/05 02:09:55;;;;;;;4.10;3.80;;;;;;;;;;5041101;28;20200;-79
2022/06/05 02:12:22;;;;;;;4.20;3.90;;;;;;;;;;5035727;28;20191;-78
2022/06/05 02:14:49;;;;;;;4.20;3.90;;;;;;;;;;5042498;28;20215;-78
2022/06/05 02:17:18;;;;;;;4.70;4.30;;;;;;;;;;5043412;28;20225;-78
2022/06/05 02:19:45;;;;;;;4.95;4.55;;;;;;;;;;5043826;28;20211;-79
2022/06/05 02:22:14;;;;;;;3.90;3.60;;;;;;;;;;5048635;28;20214;-79
2022/06/05 02:24:41;;;;;;;3.80;3.25;;;;;;;;;;5038520;28;20203;-77
2022/06/05 02:27:08;;;;;;;4.35;3.97;;;;;;;;;;5043104;28;20202;-77
2022/06/05 02:29:36;;;;;;;3.05;2.75;;;;;;;;;;5040118;28;20658;-79
2022/06/05 02:32:08;;;;;;;3.50;3.20;;;;;;;;;;5046370;28;20199;-79
2022/06/05 02:34:43;;;;;;;3.67;3.40;;;;;;;;;;5041509;28;20210;-79
2022/06/05 02:37:15;;;;;;;4.00;3.70;;;;;;;;;;5043502;28;20209;-78
2022/06/05 02:39:50;;;;;;;3.60;3.30;;;;;;;;;;5041497;28;20544;-78
2022/06/05 02:42:23;;;;;;;4.40;4.10;;;;;;;;;;5048085;28;20573;-77
2022/06/05 02:44:55;;;;;;;3.58;3.28;;;;;;;;;;5049697;28;20241;-77
2022/06/05 02:47:25;;;;;;;3.30;3.00;;;;;;;;;;5038481;28;20199;-79
2022/06/05 02:49:56;;;;;;;4.82;2.95;;;;;;;;;;5043464;28;20207;-80
2022/06/05 02:52:23;;;;;;;3.20;3.00;;;;;;;;;;5049064;28;20223;-79
2022/06/05 02:54:53;;;;;;;3.38;3.10;;;;;;;;;;5049627;28;20208;-78
2022/06/05 02:57:20;;;;;;;3.47;3.17;;;;;;;;;;5048396;28;20199;-79
2022/06/05 02:59:47;;;;;;;2.80;2.60;;;;;;;;;;5036322;28;20199;-78
2022/06/05 03:05:00;;;;;;;3.25;2.95;;;;;;;;;;5047671;28;20229;-78
2022/06/05 03:07:27;;;;;;;3.05;2.72;;;;;;;;;;5055952;28;20642;-78
2022/06/05 03:09:54;;;;;;;3.55;3.25;;;;;;;;;;5046123;28;20250;-78
2022/06/05 03:12:21;;;;;;;3.97;3.35;;;;;;;;;;5056400;28;20195;-77
2022/06/05 03:14:48;;;;;;;3.60;3.03;;;;;;;;;;5038778;28;20200;-79
2022/06/05 03:17:16;;;;;;;3.15;2.95;;;;;;;;;;5048244;28;20654;-77
2022/06/05 03:19:43;;;;;;;2.63;2.42;;;;;;;;;;5054148;28;20203;-77
2022/06/05 03:22:11;;;;;;;3.72;3.42;;;;;;;;;;5050729;28;20722;-79
2022/06/05 03:24:38;;;;;;;3.20;3.00;;;;;;;;;;5052688;28;20207;-78
2022/06/05 03:27:06;;;;;;;2.90;2.70;;;;;;;;;;5052401;28;20543;-77
2022/06/05 03:29:33;;;;;;;3.20;3.00;;;;;;;;;;5045880;28;20238;-79
2022/06/05 03:32:00;;;;;;;3.67;3.38;;;;;;;;;;5051957;28;20229;-78
2022/06/05 03:34:27;;;;;;;3.20;2.90;;;;;;;;;;5049674;28;20199;-79
2022/06/05 03:36:54;;;;;;;3.97;3.67;;;;;;;;;;5047113;28;20195;-79
2022/06/05 03:39:22;;;;;;;3.72;3.40;;;;;;;;;;5053592;28;20723;-77
2022/06/05 03:41:49;;;;;;;3.35;3.05;;;;;;;;;;5055120;28;20719;-77
2022/06/05 03:44:16;;;;;;;4.30;3.33;;;;;;;;;;5049697;28;20198;-79
2022/06/05 03:46:44;;;;;;;3.78;3.47;;;;;;;;;;5051251;28;20574;-77
2022/06/05 03:49:11;;;;;;;3.55;3.35;;;;;;;;;;5048042;28;20203;-78
2022/06/05 03:51:39;;;;;;;3.00;2.80;;;;;;;;;;5051776;28;20653;-78
2022/06/05 03:54:06;;;;;;;3.53;3.33;;;;;;;;;;5057715;28;20589;-79
2022/06/05 03:56:34;;;;;;;3.33;2.88;;;;;;;;;;5045046;28;20654;-79
2022/06/05 03:59:01;;;;;;;2.90;2.70;;;;;;;;;;5048188;28;20670;-79
2022/06/05 04:01:29;;;;;;;8.70;3.28;;;;;;;;;;5047211;28;20245;-77
2022/06/05 04:03:56;;;;;;;3.53;3.28;;;;;;;;;;5053839;28;20219;-78
2022/06/05 04:06:27;;;;;;;3.22;2.90;;;;;;;;;;5046469;28;20199;-78
2022/06/05 04:08:54;;;;;;;3.35;3.05;;;;;;;;;;5049798;28;20231;-78
2022/06/05 04:11:21;;;;;;;3.70;3.40;;;;;;;;;;5042339;28;20677;-77
2022/06/05 04:13:50;;;;;;;3.38;3.08;;;;;;;;;;5063757;28;20198;-78
2022/06/05 04:16:18;;;;;;;3.38;3.13;;;;;;;;;;5047059;28;20218;-79
2022/06/05 04:18:45;;;;;;;3.42;3.17;;;;;;;;;;5052995;28;20191;-79
2022/06/05 04:21:15;;;;;;;3.10;2.90;;;;;;;;;;5044181;28;20222;-77
2022/06/05 04:23:42;;;;;;;3.13;2.92;;;;;;;;;;5050515;28;20222;-77
2022/06/05 04:26:09;;;;;;;3.53;3.20;;;;;;;;;;5044805;28;20198;-77
2022/06/05 04:28:37;;;;;;;4.88;4.30;;;;;;;;;;5036184;28;20659;-77
2022/06/05 04:31:05;;;;;;;3.78;3.53;;;;;;;;;;5043859;28;20669;-78
2022/06/05 04:33:33;;;;;;;3.50;3.20;;;;;;;;;;5056611;28;20202;-78
2022/06/05 04:36:00;;;;;;;3.50;3.20;;;;;;;;;;5045723;28;20207;-78
2022/06/05 04:38:27;;;;;;;3.38;3.08;;;;;;;;;;5052267;28;20199;-76
2022/06/05 04:40:54;;;;;;;3.35;3.00;;;;;;;;;;5052597;28;20191;-78
2022/06/05 04:43:21;;;;;;;3.55;3.25;;;;;;;;;;5049225;28;20223;-79
2022/06/05 04:45:48;;;;;;;2.92;2.72;;;;;;;;;;5050283;28;20203;-80
2022/06/05 04:48:17;;;;;;;2.88;2.67;;;;;;;;;;5052390;28;20268;-79
2022/06/05 04:50:44;;;;;;;4.00;3.60;;;;;;;;;;5032958;28;20196;-79
2022/06/05 04:53:11;;;;;;;2.63;2.42;;;;;;;;;;5041656;28;20231;-77
2022/06/05 04:55:38;;;;;;;3.20;3.00;;;;;;;;;;5049414;28;20203;-79
2022/06/05 04:58:06;;;;;;;3.55;3.35;;;;;;;;;;5032531;28;20203;-78
2022/06/05 05:00:33;;;;;;;3.10;2.90;;;;;;;;;;5039799;28;20204;-79
2022/06/05 05:03:00;;;;;;;3.78;3.47;;;;;;;;;;5051308;28;20689;-80
2022/06/05 05:05:28;;;;;;;2.70;2.50;;;;;;;;;;5041253;28;20195;-80
2022/06/05 05:07:55;;;;;;;3.20;3.00;;;;;;;;;;5051085;28;20205;-80
2022/06/05 05:10:22;;;;;;;3.20;3.00;;;;;;;;;;5048541;28;20203;-80
2022/06/05 05:12:49;;;;;;;2.90;2.70;;;;;;;;;;5038815;28;20635;-80
2022/06/05 05:15:16;;;;;;;3.42;3.13;;;;;;;;;;5042652;28;20671;-81
2022/06/05 05:17:43;;;;;;;4.20;3.88;;;;;;;;;;5040330;28;20209;-79
2022/06/05 05:20:11;;;;;;;3.80;3.60;;;;;;;;;;5048850;28;20198;-79
2022/06/05 05:22:40;;;;;;;3.22;3.03;;;;;;;;;;5050058;28;20226;-79
2022/06/05 05:25:08;;;;;;;3.15;2.85;;;;;;;;;;5033255;28;20199;-80
2022/06/05 05:27:36;;;;;;;3.25;3.05;;;;;;;;;;5043047;28;20195;-78
2022/06/05 05:30:04;;;;;;;3.20;3.00;;;;;;;;;;5043893;28;20219;-77
2022/06/05 05:32:32;;;;;;;2.90;2.70;;;;;;;;;;5045558;28;20199;-78
2022/06/05 05:34:59;;;;;;;2.95;2.75;;;;;;;;;;5044896;28;20945;-78
2022/06/05 05:37:26;;;;;;;3.15;2.90;;;;;;;;;;5050619;28;20207;-79
2022/06/05 05:42:39;;;;;;;3.72;3.53;;;;;;;;;;5047599;28;20237;-79
2022/06/05 05:45:08;;;;;;;3.30;2.92;;;;;;;;;;5034460;28;20282;-78
2022/06/05 05:47:35;;;;;;;3.15;2.95;;;;;;;;;;5061877;28;20255;-78
2022/06/05 05:50:04;;;;;;;3.17;2.88;;;;;;;;;;5039381;28;20597;-79
2022/06/05 05:52:31;;;;;;;3.80;3.50;;;;;;;;;;5048136;28;20615;-79
2022/06/05 05:55:01;;;;;;;3.50;3.22;;;;;;;;;;5042404;28;20230;-79
2022/06/05 05:57:28;;;;;;;3.45;3.25;;;;;;;;;;5054327;28;20198;-80
2022/06/05 05:59:55;;;;;;;2.97;2.78;;;;;;;;;;5032498;28;20693;-80
2022/06/05 06:02:23;;;;;;;5.78;3.50;;;;;;;;;;5041497;28;20195;-80
2022/06/05 06:04:51;;;;;;;4.43;2.75;;;;;;;;;;5046463;28;20202;-80
2022/06/05 06:07:18;;;;;;;2.78;2.58;;;;;;;;;;5045114;28;20202;-80
2022/06/05 06:09:45;;;;;;;4.57;2.97;;;;;;;;;;5044284;28;20665;-79
2022/06/05 06:12:13;;;;;;;3.17;2.85;;;;;;;;;;5037199;28;20196;-80
2022/06/05 06:14:41;;;;;;;3.20;3.00;;;;;;;;;;5044329;28;20195;-78
2022/06/05 06:17:09;;;;;;;2.80;2.60;;;;;;;;;;5045901;28;20199;-78
2022/06/05 06:19:36;;;;;;;2.92;2.72;;;;;;;;;;5042592;28;20349;-79
2022/06/05 06:22:04;;;;;;;3.22;2.90;;;;;;;;;;5045674;28;20199;-78
2022/06/05 06:24:31;;;;;;;2.85;2.50;;;;;;;;;;5047277;28;20274;-79
2022/06/05 06:26:58;;;;;;;3.05;2.85;;;;;;;;;;5041357;28;20605;-79
2022/06/05 06:29:27;;;;;;;3.33;3.13;;;;;;;;;;5041082;28;20989;-79
2022/06/05 06:31:54;;;;;;;3.40;3.10;;;;;;;;;;5044174;28;20202;-80
2022/06/05 06:34:21;;;;;;;3.50;3.20;;;;;;;;;;5044059;28;20190;-80
2022/06/05 06:36:48;;;;;;;2.88;2.67;;;;;;;;;;5048611;28;20195;-79
2022/06/05 06:39:15;;;;;;;3.30;3.10;;;;;;;;;;5051290;28;20654;-79
2022/06/05 06:41:42;;;;;;;2.90;2.70;;;;;;;;;;5045820;28;20227;-80
2022/06/05 06:44:09;;;;;;;3.13;2.90;;;;;;;;;;5052978;28;20226;-82
2022/06/05 06:46:38;;;;;;;5.20;3.00;;;;;;;;;;5053579;28;20203;-82
2022/06/05 06:49:05;;;;;;;2.97;2.75;;;;;;;;;;5040225;28;20195;-83
2022/06/05 06:51:32;;;;;;;4.00;3.70;;;;;;;;;;5036841;28;20208;-84
2022/06/05 06:53:59;;;;;;;2.53;2.33;;;;;;;;;;5053735;28;20191;-84
2022/06/05 06:56:28;;;;;;;3.22;3.00;;;;;;;;;;5050738;28;20199;-82
2022/06/05 06:58:55;;;;;;;2.85;2.65;;;;;;;;;;5051458;28;20210;-84
2022/06/05 07:01:22;;;;;;;3.15;2.60;;;;;;;;;;5044448;28;20646;-83
2022/06/05 07:03:51;;;;;;;2.78;2.58;;;;;;;;;;5042439;28;20633;-84
2022/06/05 07:06:20;;;;;;;3.20;2.90;;;;;;;;;;5045623;28;20200;-83
2022/06/05 07:08:49;;;;;;;3.15;2.95;;;;;;;;;;5050671;28;20195;-81
2022/06/05 07:11:16;;;;;;;3.55;3.25;;;;;;;;;;5040265;28;20286;-82
2022/06/05 07:13:43;;;;;;;3.60;3.30;;;;;;;;;;5035268;28;20295;-80
2022/06/05 07:16:11;;;;;;;3.42;3.15;;;;;;;;;;5047560;28;20203;-81
2022/06/05 07:18:39;;;;;;;10.02;3.50;;;;;;;;;;5052766;28;20230;-81
2022/06/05 07:21:11;;;;;;;3.58;3.28;;;;;;;;;;5043562;28;20275;-80
2022/06/05 07:23:38;;;;;;;2.80;2.60;;;;;;;;;;5053217;28;20586;-81
2022/06/05 07:26:07;;;;;;;2.97;2.65;;;;;;;;;;5042159;28;20654;-83
2022/06/05 07:28:34;;;;;;;2.90;2.70;;;;;;;;;;5046433;28;20204;-84
2022/06/05 07:31:02;;;;;;;3.10;2.90;;;;;;;;;;5039134;28;20207;-81
2022/06/05 07:33:31;;;;;;;3.00;2.80;;;;;;;;;;5037011;28;20203;-82
2022/06/05 07:35:59;;;;;;;3.70;3.40;;;;;;;;;;5037613;28;20292;-84
2022/06/05 07:38:27;;;;;;;4.88;3.58;;;;;;;;;;5034305;28;20218;-84
2022/06/05 07:40:55;;;;;;;3.80;3.50;;;;;;;;;;5030324;28;20226;-84
2022/06/05 07:43:22;;;;;;;5.25;3.53;;;;;;;;;;5033834;28;20762;-84
2022/06/05 07:45:50;;;;;;;3.75;3.45;;;;;;;;;;5050676;28;20203;-82
2022/06/05 07:48:20;;;;;;;3.60;3.38;;;;;;;;;;5036076;28;20223;-83
2022/06/05 07:56:17;;;;;;;3.58;3.38;;;;;;;;;;5031902;28;20601;-81
2022/06/05 07:58:44;;;;;;;2.83;2.63;;;;;;;;;;5037140;28;20195;-82
2022/06/05 08:01:11;;;;;;;4.13;3.72;;;;;;;;;;5032721;28;20579;-82
2022/06/05 08:03:38;;;;;;;3.88;3.25;;;;;;;;;;5032751;28;20695;-82
2022/06/05 08:06:07;;;;;;;3.90;3.60;;;;;;;;;;5031499;28;20203;-84
2022/06/05 08:08:36;;;;;;;5.72;3.90;;;;;;;;;;5030574;28;20204;-81
2022/06/05 08:11:04;;;;;;;3.75;3.55;;;;;;;;;;5039376;28;20593;-82
2022/06/05 08:13:31;;;;;;;3.72;2.97;;;;;;;;;;5039756;28;21771;-83
2022/06/05 08:15:58;;;;;;;4.57;4.25;;;;;;;;;;5038984;28;20567;-81
2022/06/05 08:18:25;;;;;;;4.30;3.90;;;;;;;;;;5029987;28;20207;-81
2022/06/05 08:20:53;;;;;;;3.63;3.42;;;;;;;;;;5033468;28;20617;-83
2022/06/05 08:23:21;;;;;;;4.38;3.97;;;;;;;;;;5030835;28;20207;-81
2022/06/05 08:25:49;;;;;;;4.13;3.72;;;;;;;;;;5034202;28;20206;-80
2022/06/05 08:28:16;;;;;;;4.85;4.35;;;;;;;;;;5034847;28;20201;-82
2022/06/05 08:30:43;;;;;;;3.00;2.80;;;;;;;;;;5045711;28;20205;-82
2022/06/05 08:33:11;;;;;;;4.05;3.80;;;;;;;;;;5045211;28;20651;-81
2022/06/05 08:35:39;;;;;;;5.00;3.95;;;;;;;;;;5039481;28;20579;-81
2022/06/05 08:43:45;;;;;;;5.80;4.03;;;;;;;;;;5036003;28;20234;-80
2022/06/05 08:46:16;;;;;;;3.67;3.35;;;;;;;;;;5046932;28;20195;-82
2022/06/05 08:48:47;;;;;;;3.65;3.35;;;;;;;;;;5048461;28;20210;-82
2022/06/05 08:51:22;;;;;;;4.15;3.85;;;;;;;;;;5036986;28;20191;-82
2022/06/05 08:53:51;;;;;;;4.28;3.97;;;;;;;;;;5040401;28;20190;-81
2022/06/05 08:56:23;;;;;;;3.78;3.47;;;;;;;;;;5033902;28;20288;-82
2022/06/05 08:58:53;;;;;;;3.58;3.28;;;;;;;;;;5046761;28;20258;-81
2022/06/05 09:01:23;;;;;;;4.20;3.80;;;;;;;;;;5038284;28;20197;-83
2022/06/05 09:03:52;;;;;;;3.83;3.53;;;;;;;;;;5032671;28;20474;-81
2022/06/05 09:06:24;;;;;;;4.60;4.30;;;;;;;;;;5038379;28;20204;-81
2022/06/05 09:08:55;;;;;;;3.67;3.47;;;;;;;;;;5041193;28;20463;-81
2022/06/05 09:11:30;;;;;;;4.03;3.73;;;;;;;;;;5036151;28;20201;-83
2022/06/05 09:14:02;;;;;;;3.70;3.40;;;;;;;;;;5041405;28;20461;-83
2022/06/05 09:16:31;;;;;;;4.77;4.30;;;;;;;;;;5037621;28;20465;-83
2022/06/05 09:18:59;;;;;;;3.90;3.60;;;;;;;;;;5046166;28;20471;-81
2022/06/05 09:21:28;;;;;;;4.23;3.83;;;;;;;;;;5042004;28;20465;-80
2022/06/05 09:24:00;;;;;;;3.67;3.40;;;;;;;;;;5043267;28;20947;-82
2022/06/05 09:26:35;;;;;;;4.47;4.17;;;;;;;;;;5061441;28;20501;-83
2022/06/05 09:29:17;;;;;;;6.00;4.70;;;;;;;;;;5034407;28;20471;-81
2022/06/05 09:31:59;;;;;;;4.17;3.87;;;;;;;;;;5041589;28;20207;-82
2022/06/05 09:34:29;;;;;;;4.07;3.80;;;;;;;;;;5037696;28;20463;-82
2022/06/05 09:36:59;;;;;;;5.07;4.77;;;;;;;;;;5044035;28;20201;-84
2022/06/05 09:39:28;;;;;;;4.40;4.07;;;;;;;;;;5049463;28;20948;-81
2022/06/05 09:42:04;;;;;;;4.55;3.88;;;;;;;;;;5049226;28;20250;-82
2022/06/05 09:44:38;;;;;;;5.22;4.80;;;;;;;;;;5041768;28;20310;-81
2022/06/05 09:47:09;;;;;;;4.90;4.40;;;;;;;;;;5049233;28;20207;-83
2022/06/05 09:49:38;;;;;;;5.10;4.60;;;;;;;;;;5048657;28;20228;-83
2022/06/05 09:52:13;;;;;;;4.40;4.10;;;;;;;;;;5039111;28;20259;-84
2022/06/05 09:54:44;;;;;;;5.63;4.10;;;;;;;;;;5044416;28;20458;-82
2022/06/05 10:00:08;;;;;;;4.80;4.25;;;;;;;;;;5038205;28;20344;-82
2022/06/05 10:02:35;;;;;;;4.63;3.90;;;;;;;;;;5044836;28;20196;-82
2022/06/05 10:05:02;;;;;;;4.30;3.90;;;;;;;;;;5048213;28;20989;-82
2022/06/05 10:07:31;;;;;;;4.68;4.32;;;;;;;;;;5042261;28;20204;-81
2022/06/05 10:09:58;;;;;;;5.10;4.60;;;;;;;;;;5039921;28;20203;-83
2022/06/05 10:12:29;;;;;;;4.57;4.28;;;;;;;;;;5036522;28;20251;-82
2022/06/05 10:14:59;;;;;;;4.50;4.10;;;;;;;;;;5030420;28;20205;-82
2022/06/05 10:17:36;;;;;;;4.47;4.18;;;;;;;;;;5038072;28;20219;-81
2022/06/05 10:20:09;;;;;;;6.10;4.83;;;;;;;;;;5044014;28;20250;-82
2022/06/05 10:22:38;;;;;;;4.83;4.53;;;;;;;;;;5037961;28;20476;-82
2022/06/05 10:25:14;;;;;;;4.60;4.30;;;;;;;;;;5041184;28;20470;-83
2022/06/05 10:27:48;;;;;;;5.53;5.13;;;;;;;;;;5039065;28;20259;-83
2022/06/05 10:30:16;;;;;;;4.53;4.13;;;;;;;;;;5039514;28;20459;-82
2022/06/05 10:32:48;;;;;;;5.32;4.93;;;;;;;;;;5039192;28;20206;-81
2022/06/05 10:35:18;;;;;;;5.38;4.97;;;;;;;;;;5047608;28;20197;-80
2022/06/05 10:37:48;;;;;;;6.05;4.65;;;;;;;;;;5043919;28;20563;-78
2022/06/05 10:40:20;;;;;;;5.03;4.72;;;;;;;;;;5039660;28;20632;-83
2022/06/05 10:42:52;;;;;;;5.60;5.20;;;;;;;;;;5046180;28;20230;-83
2022/06/05 10:45:34;;;;;;;5.63;5.03;;;;;;;;;;5042475;28;20339;-82
2022/06/05 10:48:07;;;;;;;4.53;4.15;;;;;;;;;;5037853;28;20202;-82
2022/06/05 10:50:38;;;;;;;4.82;4.43;;;;;;;;;;5041724;28;20703;-82
2022/06/05 10:53:08;;;;;;;4.97;4.57;;;;;;;;;;5032722;28;20702;-82
2022/06/05 10:55:41;;;;;;;4.82;4.53;;;;;;;;;;5035106;28;20204;-83
2022/06/05 10:58:14;;;;;;;6.00;5.53;;;;;;;;;;5042837;28;20220;-83
2022/06/05 11:00:56;;;;;;;5.15;4.75;;;;;;;;;;5035773;28;20284;-84
2022/06/05 11:03:28;;;;;;;4.80;4.50;;;;;;;;;;5042322;28;20205;-83
2022/06/05 11:06:05;;;;;;;4.77;4.47;;;;;;;;;;5042065;28;20210;-82
2022/06/05 11:08:40;;;;;;;4.53;4.18;;;;;;;;;;5049715;28;20859;-81
2022/06/05 11:14:03;;;;;;;5.03;4.38;;;;;;;;;;5033719;28;20468;-82
2022/06/05 11:16:32;;;;;;;4.13;3.83;;;;;;;;;;5047797;28;20262;-81
2022/06/05 11:19:08;;;;;;;4.30;4.10;;;;;;;;;;5048401;28;20211;-82
2022/06/05 11:21:35;;;;;;;4.10;3.80;;;;;;;;;;5048828;28;20460;-82
2022/06/05 11:24:02;;;;;;;4.05;3.85;;;;;;;;;;5039811;28;20201;-83
2022/06/05 11:26:35;;;;;;;4.20;3.90;;;;;;;;;;5047492;28;20210;-81
2022/06/05 11:29:14;;;;;;;4.47;4.10;;;;;;;;;;5046181;28;20458;-84
2022/06/05 11:31:46;;;;;;;4.45;4.13;;;;;;;;;;5041899;28;20262;-81
2022/06/05 11:34:22;;;;;;;4.10;3.80;;;;;;;;;;5049690;28;20250;-81
2022/06/05 11:36:51;;;;;;;3.90;3.65;;;;;;;;;;5044399;28;20199;-82
2022/06/05 11:39:25;;;;;;;3.58;3.38;;;;;;;;;;5056305;28;20206;-81
2022/06/05 11:41:55;;;;;;;4.72;4.32;;;;;;;;;;5043621;28;20220;-81
2022/06/05 11:44:33;;;;;;;4.22;3.90;;;;;;;;;;5045536;28;20676;-85
2022/06/05 11:47:03;;;;;;;4.40;4.00;;;;;;;;;;5039413;28;20234;-82
2022/06/05 11:49:39;;;;;;;4.43;4.13;;;;;;;;;;5044420;28;20296;-80
2022/06/05 11:52:09;;;;;;;3.25;3.05;;;;;;;;;;5046853;28;20204;-80
2022/06/05 11:54:42;;;;;;;4.07;3.67;;;;;;;;;;5038064;28;20247;-80
2022/06/05 11:57:14;;;;;;;4.65;4.25;;;;;;;;;;5049071;28;20196;-83
2022/06/05 11:59:46;;;;;;;4.45;4.15;;;;;;;;;;5049163;28;20231;-82
2022/06/05 12:02:31;;;;;;;4.10;3.80;;;;;;;;;;5040085;28;20218;-82
2022/06/05 12:05:01;;;;;;;4.90;4.50;;;;;;;;;;5039368;28;21775;-81
2022/06/05 12:07:29;;;;;;;4.57;4.18;;;;;;;;;;5045872;28;20208;-85
2022/06/05 12:09:57;;;;;;;4.32;4.03;;;;;;;;;;5044529;28;20208;-82
2022/06/05 12:12:26;;;;;;;4.55;4.15;;;;;;;;;;5042716;28;20190;-82
2022/06/05 12:14:59;;;;;;;4.25;3.95;;;;;;;;;;5033637;28;20273;-82
2022/06/05 12:17:30;;;;;;;4.25;3.95;;;;;;;;;;5045463;28;20194;-83
2022/06/05 12:20:00;;;;;;;4.10;3.80;;;;;;;;;;5043935;28;20257;-83
2022/06/05 12:22:29;;;;;;;4.32;4.03;;;;;;;;;;5041835;28;20282;-82
2022/06/05 12:24:58;;;;;;;5.93;5.32;;;;;;;;;;5042623;28;20743;-82
2022/06/05 12:27:26;;;;;;;4.22;3.92;;;;;;;;;;5047733;28;20661;-82
2022/06/05 12:29:57;;;;;;;4.38;3.90;;;;;;;;;;5038217;28;20195;-84
2022/06/05 12:32:28;;;;;;;4.93;4.53;;;;;;;;;;5040618;28;20203;-82
2022/06/05 12:34:58;;;;;;;4.22;4.03;;;;;;;;;;5034146;28;20217;-82
2022/06/05 12:37:27;;;;;;;4.80;4.40;;;;;;;;;;5041172;28;20314;-81
2022/06/05 12:39:56;;;;;;;5.00;4.65;;;;;;;;;;5043171;28;20348;-82
2022/06/05 12:42:28;;;;;;;4.40;4.10;;;;;;;;;;5035233;28;20212;-82
2022/06/05 12:44:58;;;;;;;4.55;4.25;;;;;;;;;;5038506;28;20234;-82
2022/06/05 12:47:47;;;;;;;7.00;4.82;;;;;;;;;;5042833;28;20624;-83
2022/06/05 12:50:23;;;;;;;5.00;4.63;;;;;;;;;;5039439;28;20274;-82
2022/06/05 12:52:53;;;;;;;4.70;4.30;;;;;;;;;;5045391;28;20191;-82
2022/06/05 12:55:23;;;;;;;5.50;5.10;;;;;;;;;;5048293;28;20199;-82
2022/06/05 12:57:52;;;;;;;4.97;4.55;;;;;;;;;;5043672;28;20201;-82
2022/06/05 13:00:35;;;;;;;4.38;4.07;;;;;;;;;;5036791;28;20197;-82
2022/06/05 13:03:10;;;;;;;5.38;4.88;;;;;;;;;;5039159;28;20200;-83
2022/06/05 13:05:43;;;;;;;10.13;4.65;;;;;;;;;;5038836;28;20258;-84
2022/06/05 13:08:14;;;;;;;4.55;4.15;;;;;;;;;;5040846;28;20193;-81
2022/06/05 13:10:42;;;;;;;4.60;4.30;;;;;;;;;;5044889;28;20206;-82
2022/06/05 13:13:24;;;;;;;4.97;4.57;;;;;;;;;;5036021;28;20197;-83
2022/06/05 13:15:53;;;;;;;5.35;4.95;;;;;;;;;;5042500;28;20213;-81
2022/06/05 13:18:26;;;;;;;4.45;4.15;;;;;;;;;;5045460;28;20672;-83
2022/06/05 13:21:03;;;;;;;6.53;5.85;;;;;;;;;;5047344;28;20212;-83
2022/06/05 13:23:32;;;;;;;5.03;4.57;;;;;;;;;;5047504;28;20610;-82
2022/06/05 13:26:06;;;;;;;5.95;5.55;;;;;;;;;;5047630;28;20227;-82
2022/06/05 13:28:40;;;;;;;5.32;4.88;;;;;;;;;;5034727;28;20215;-81
2022/06/05 13:31:10;;;;;;;4.75;4.32;;;;;;;;;;5042026;28;20196;-82
2022/06/05 13:33:43;;;;;;;5.88;5.20;;;;;;;;;;5045758;28;20210;-81
2022/06/05 13:36:15;;;;;;;5.68;5.18;;;;;;;;;;5043071;28;20216;-83
2022/06/05 13:38:47;;;;;;;4.63;4.32;;;;;;;;;;5052282;28;20229;-82
2022/06/05 13:41:17;;;;;;;5.40;5.00;;;;;;;;;;5049528;28;20527;-83
2022/06/05 13:43:48;;;;;;;5.05;4.70;;;;;;;;;;5046592;28;20207;-81
2022/06/05 13:46:22;;;;;;;4.65;4.32;;;;;;;;;;5038845;28;20216;-82
2022/06/05 13:48:56;;;;;;;7.38;5.40;;;;;;;;;;5042577;28;20673;-81
2022/06/05 13:51:26;;;;;;;5.60;5.20;;;;;;;;;;5034390;28;20209;-81
2022/06/05 13:53:58;;;;;;;5.07;4.60;;;;;;;;;;5042877;28;20228;-81
2022/06/05 13:56:30;;;;;;;5.30;4.90;;;;;;;;;;5048719;28;20552;-81
2022/06/05 13:59:00;;;;;;;5.32;4.93;;;;;;;;;;5045147;28;20686;-83
2022/06/05 14:01:31;;;;;;;5.07;4.68;;;;;;;;;;5038236;28;20292;-82
2022/06/05 14:04:13;;;;;;;6.25;5.78;;;;;;;;;;5037301;28;20217;-82
2022/06/05 14:06:45;;;;;;;5.20;4.80;;;;;;;;;;5035838;28;20722;-80
2022/06/05 14:09:29;;;;;;;5.40;5.00;;;;;;;;;;5040928;28;20731;-82
2022/06/05 14:11:57;;;;;;;4.40;4.10;;;;;;;;;;5039960;28;20195;-81
2022/06/05 14:14:36;;;;;;;5.57;5.18;;;;;;;;;;5046397;28;20204;-82
2022/06/05 14:17:04;;;;;;;5.70;5.20;;;;;;;;;;5039862;28;20675;-80
2022/06/05 14:19:35;;;;;;;5.97;5.40;;;;;;;;;;5045272;28;20199;-81
2022/06/05 14:22:05;;;;;;;5.88;5.45;;;;;;;;;;5039824;28;20204;-82
2022/06/05 14:24:37;;;;;;;7.00;6.50;;;;;;;;;;5045305;28;20211;-81
2022/06/05 14:27:05;;;;;;;5.75;5.25;;;;;;;;;;5039996;28;20484;-81
2022/06/05 14:29:33;;;;;;;6.30;5.57;;;;;;;;;;5040215;28;20205;-81
2022/06/05 14:32:05;;;;;;;6.35;5.15;;;;;;;;;;5042995;28;20466;-82
2022/06/05 14:34:35;;;;;;;5.75;5.35;;;;;;;;;;5046310;28;20206;-83
2022/06/05 14:37:22;;;;;;;5.45;5.05;;;;;;;;;;5042799;28;20206;-81
2022/06/05 14:39:50;;;;;;;5.95;5.55;;;;;;;;;;5035205;28;20664;-82
2022/06/05 14:42:21;;;;;;;6.00;5.55;;;;;;;;;;5033241;28;20223;-80
2022/06/05 14:44:50;;;;;;;5.53;5.13;;;;;;;;;;5036550;28;20263;-83
2022/06/05 14:47:19;;;;;;;6.68;5.63;;;;;;;;;;5035136;28;20216;-83
2022/06/05 14:49:49;;;;;;;6.03;5.10;;;;;;;;;;5031971;28;20211;-83
2022/06/05 14:52:24;;;;;;;5.27;4.90;;;;;;;;;;5036056;28;20201;-80
2022/06/05 14:57:52;;;;;;;5.72;5.32;;;;;;;;;;5034208;28;20203;-82
2022/06/05 15:00:21;;;;;;;6.10;5.63;;;;;;;;;;5041472;28;20196;-82
2022/06/05 15:02:51;;;;;;;7.47;6.70;;;;;;;;;;5048990;28;20205;-83
2022/06/05 15:05:22;;;;;;;7.40;6.80;;;;;;;;;;5042441;28;20682;-82
2022/06/05 15:07:52;;;;;;;6.45;6.00;;;;;;;;;;5039234;28;20621;-82
2022/06/05 15:10:26;;;;;;;6.50;5.97;;;;;;;;;;5035823;28;20196;-79
2022/06/05 15:12:57;;;;;;;7.15;6.13;;;;;;;;;;5043118;28;20209;-81
2022/06/05 15:15:26;;;;;;;6.40;5.90;;;;;;;;;;5033619;28;20771;-82
2022/06/05 15:17:54;;;;;;;6.88;6.28;;;;;;;;;;5045302;28;20208;-83
2022/06/05 15:20:24;;;;;;;6.53;6.03;;;;;;;;;;5050210;28;20231;-82
2022/06/05 15:22:56;;;;;;;6.45;5.95;;;;;;;;;;5049356;28;20552;-81
2022/06/05 15:25:28;;;;;;;5.75;5.25;;;;;;;;;;5043611;28;20223;-82